sensor_id;sensor_type;location;lat;lon;timestamp;P1;durP1;ratioP1;P2;durP2;ratioP2
36457;SDS011;22480;50.546;12.292;2022-12-10T00:01:29;62.27;;;29.60;;
36457;SDS011;22480;50.546;12.292;2022-12-10T00:03:57;48.27;;;28.83;;
36457;SDS011;22480;50.546;12.292;2022-12-10T00:06:24;52.23;;;28.57;;
36457;SDS011;22480;50.546;12.292;2022-12-10T00:08:52;47.77;;;28.47;;
36457;SDS011;22480;50.546;12.292;2022-12-10T00:11:19;55.70;;;29.23;;
36457;SDS011;22480;50.546;12.292;2022-12-10T00:13:46;52.20;;;28.40;;
36457;SDS011;22480;50.546;12.292;2022-12-10T00:16:13;55.23;;;29.60;;
36457;SDS011;22480;50.546;12.292;2022-12-10T00:18:40;57.10;;;30.17;;
36457;SDS011;22480;50.546;12.292;2022-12-10T00:21:07;61.97;;;31.87;;
36457;SDS011;22480;50.546;12.292;2022-12-10T00:23:37;55.37;;;29.93;;
36457;SDS011;22480;50.546;12.292;2022-12-10T00:26:08;55.80;;;29.40;;
36457;SDS011;22480;50.546;12.292;2022-12-10T00:28:36;61.33;;;30.90;;
36457;SDS011;22480;50.546;12.292;2022-12-10T00:31:03;64.63;;;32.13;;
36457;SDS011;22480;50.546;12.292;2022-12-10T00:33:30;71.87;;;31.70;;
36457;SDS011;22480;50.546;12.292;2022-12-10T00:35:56;65.20;;;32.77;;
36457;SDS011;22480;50.546;12.292;2022-12-10T00:38:26;67.35;;;34.20;;
36457;SDS011;22480;50.546;12.292;2022-12-10T00:40:51;69.37;;;32.73;;
36457;SDS011;22480;50.546;12.292;2022-12-10T00:43:17;74.00;;;34.70;;
36457;SDS011;22480;50.546;12.292;2022-12-10T00:45:43;76.70;;;36.13;;
36457;SDS011;22480;50.546;12.292;2022-12-10T00:48:09;81.33;;;36.33;;
36457;SDS011;22480;50.546;12.292;2022-12-10T00:50:34;86.77;;;38.03;;
36457;SDS011;22480;50.546;12.292;2022-12-10T00:53:00;82.13;;;36.70;;
36457;SDS011;22480;50.546;12.292;2022-12-10T00:55:26;87.47;;;38.80;;
36457;SDS011;22480;50.546;12.292;2022-12-10T00:57:51;92.03;;;40.40;;
36457;SDS011;22480;50.546;12.292;2022-12-10T01:00:17;92.00;;;37.70;;
36457;SDS011;22480;50.546;12.292;2022-12-10T01:02:43;88.40;;;38.33;;
36457;SDS011;22480;50.546;12.292;2022-12-10T01:05:09;83.77;;;37.63;;
36457;SDS011;22480;50.546;12.292;2022-12-10T01:07:35;84.47;;;38.97;;
36457;SDS011;22480;50.546;12.292;2022-12-10T01:10:01;97.47;;;38.20;;
36457;SDS011;22480;50.546;12.292;2022-12-10T01:12:27;91.33;;;39.03;;
36457;SDS011;22480;50.546;12.292;2022-12-10T01:14:53;92.23;;;39.80;;
36457;SDS011;22480;50.546;12.292;2022-12-10T01:17:19;96.27;;;39.60;;
36457;SDS011;22480;50.546;12.292;2022-12-10T01:19:46;93.53;;;38.20;;
36457;SDS011;22480;50.546;12.292;2022-12-10T01:22:12;90.93;;;36.83;;
36457;SDS011;22480;50.546;12.292;2022-12-10T01:24:38;93.40;;;39.23;;
36457;SDS011;22480;50.546;12.292;2022-12-10T01:27:04;98.23;;;38.77;;
36457;SDS011;22480;50.546;12.292;2022-12-10T01:29:30;81.80;;;36.73;;
36457;SDS011;22480;50.546;12.292;2022-12-10T01:31:56;97.87;;;40.13;;
36457;SDS011;22480;50.546;12.292;2022-12-10T01:34:22;94.27;;;40.43;;
36457;SDS011;22480;50.546;12.292;2022-12-10T01:36:50;91.57;;;38.77;;
36457;SDS011;22480;50.546;12.292;2022-12-10T01:39:17;89.87;;;37.80;;
36457;SDS011;22480;50.546;12.292;2022-12-10T01:46:47;108.53;;;41.67;;
36457;SDS011;22480;50.546;12.292;2022-12-10T01:49:16;108.00;;;40.70;;
36457;SDS011;22480;50.546;12.292;2022-12-10T01:51:44;104.30;;;41.03;;
36457;SDS011;22480;50.546;12.292;2022-12-10T01:54:14;111.23;;;43.73;;
36457;SDS011;22480;50.546;12.292;2022-12-10T01:56:43;80.20;;;34.17;;
36457;SDS011;22480;50.546;12.292;2022-12-10T01:59:10;93.03;;;39.83;;
36457;SDS011;22480;50.546;12.292;2022-12-10T02:01:45;100.93;;;41.00;;
36457;SDS011;22480;50.546;12.292;2022-12-10T02:07:25;92.50;;;39.83;;
36457;SDS011;22480;50.546;12.292;2022-12-10T02:18:25;98.17;;;41.70;;
36457;SDS011;22480;50.546;12.292;2022-12-10T02:21:00;100.23;;;41.63;;
36457;SDS011;22480;50.546;12.292;2022-12-10T02:23:45;100.87;;;42.87;;
36457;SDS011;22480;50.546;12.292;2022-12-10T02:26:25;105.00;;;41.43;;
36457;SDS011;22480;50.546;12.292;2022-12-10T02:34:05;84.40;;;37.03;;
36457;SDS011;22480;50.546;12.292;2022-12-10T02:36:35;87.50;;;36.60;;
36457;SDS011;22480;50.546;12.292;2022-12-10T02:39:05;90.32;;;38.40;;
36457;SDS011;22480;50.546;12.292;2022-12-10T02:41:42;89.13;;;38.40;;
36457;SDS011;22480;50.546;12.292;2022-12-10T02:44:12;86.43;;;38.40;;
36457;SDS011;22480;50.546;12.292;2022-12-10T02:46:43;87.77;;;40.90;;
36457;SDS011;22480;50.546;12.292;2022-12-10T02:49:12;90.10;;;39.03;;
36457;SDS011;22480;50.546;12.292;2022-12-10T02:51:40;82.70;;;37.57;;
36457;SDS011;22480;50.546;12.292;2022-12-10T02:54:31;98.17;;;39.30;;
36457;SDS011;22480;50.546;12.292;2022-12-10T02:57:21;83.77;;;38.80;;
36457;SDS011;22480;50.546;12.292;2022-12-10T03:05:33;87.93;;;39.40;;
36457;SDS011;22480;50.546;12.292;2022-12-10T03:13:57;90.20;;;37.90;;
36457;SDS011;22480;50.546;12.292;2022-12-10T03:16:24;89.53;;;38.03;;
36457;SDS011;22480;50.546;12.292;2022-12-10T03:18:56;93.68;;;39.72;;
36457;SDS011;22480;50.546;12.292;2022-12-10T03:21:26;94.87;;;40.67;;
36457;SDS011;22480;50.546;12.292;2022-12-10T03:23:53;90.17;;;38.50;;
36457;SDS011;22480;50.546;12.292;2022-12-10T03:26:19;82.43;;;35.63;;
36457;SDS011;22480;50.546;12.292;2022-12-10T03:28:52;87.10;;;38.23;;
36457;SDS011;22480;50.546;12.292;2022-12-10T03:31:23;83.37;;;36.70;;
36457;SDS011;22480;50.546;12.292;2022-12-10T03:33:49;84.20;;;37.00;;
36457;SDS011;22480;50.546;12.292;2022-12-10T03:36:15;90.37;;;38.00;;
36457;SDS011;22480;50.546;12.292;2022-12-10T03:38:43;89.40;;;38.37;;
36457;SDS011;22480;50.546;12.292;2022-12-10T03:41:09;85.93;;;39.10;;
36457;SDS011;22480;50.546;12.292;2022-12-10T03:43:35;81.30;;;36.40;;
36457;SDS011;22480;50.546;12.292;2022-12-10T03:46:01;85.10;;;37.60;;
36457;SDS011;22480;50.546;12.292;2022-12-10T03:48:27;82.57;;;38.47;;
36457;SDS011;22480;50.546;12.292;2022-12-10T03:50:53;89.20;;;38.57;;
36457;SDS011;22480;50.546;12.292;2022-12-10T03:53:19;86.63;;;36.93;;
36457;SDS011;22480;50.546;12.292;2022-12-10T03:55:46;85.47;;;37.33;;
36457;SDS011;22480;50.546;12.292;2022-12-10T03:58:11;83.77;;;35.60;;
36457;SDS011;22480;50.546;12.292;2022-12-10T04:00:37;85.27;;;36.80;;
36457;SDS011;22480;50.546;12.292;2022-12-10T04:03:03;82.97;;;38.90;;
36457;SDS011;22480;50.546;12.292;2022-12-10T04:05:28;81.40;;;35.07;;
36457;SDS011;22480;50.546;12.292;2022-12-10T04:07:54;83.23;;;36.70;;
36457;SDS011;22480;50.546;12.292;2022-12-10T04:10:20;74.47;;;33.50;;
36457;SDS011;22480;50.546;12.292;2022-12-10T04:12:46;78.77;;;35.70;;
36457;SDS011;22480;50.546;12.292;2022-12-10T04:15:32;79.77;;;35.70;;
36457;SDS011;22480;50.546;12.292;2022-12-10T04:18:16;81.63;;;34.13;;
36457;SDS011;22480;50.546;12.292;2022-12-10T04:20:42;77.93;;;35.13;;
36457;SDS011;22480;50.546;12.292;2022-12-10T04:23:26;76.63;;;34.77;;
36457;SDS011;22480;50.546;12.292;2022-12-10T04:26:11;79.93;;;35.27;;
36457;SDS011;22480;50.546;12.292;2022-12-10T04:28:55;84.97;;;35.73;;
36457;SDS011;22480;50.546;12.292;2022-12-10T04:31:21;81.70;;;35.77;;
36457;SDS011;22480;50.546;12.292;2022-12-10T04:33:46;83.30;;;36.50;;
36457;SDS011;22480;50.546;12.292;2022-12-10T04:36:12;85.53;;;35.57;;
36457;SDS011;22480;50.546;12.292;2022-12-10T04:38:38;79.87;;;36.63;;
36457;SDS011;22480;50.546;12.292;2022-12-10T04:41:03;85.57;;;36.60;;
36457;SDS011;22480;50.546;12.292;2022-12-10T04:43:40;80.30;;;36.77;;
36457;SDS011;22480;50.546;12.292;2022-12-10T04:46:08;88.40;;;36.37;;
36457;SDS011;22480;50.546;12.292;2022-12-10T04:48:34;85.83;;;35.83;;
36457;SDS011;22480;50.546;12.292;2022-12-10T04:51:00;81.57;;;35.10;;
36457;SDS011;22480;50.546;12.292;2022-12-10T04:53:26;73.30;;;33.17;;
36457;SDS011;22480;50.546;12.292;2022-12-10T04:55:51;81.77;;;34.33;;
36457;SDS011;22480;50.546;12.292;2022-12-10T04:58:17;76.17;;;34.63;;
36457;SDS011;22480;50.546;12.292;2022-12-10T05:00:43;75.90;;;34.17;;
36457;SDS011;22480;50.546;12.292;2022-12-10T05:03:08;86.83;;;35.10;;
36457;SDS011;22480;50.546;12.292;2022-12-10T05:05:34;81.10;;;35.30;;
36457;SDS011;22480;50.546;12.292;2022-12-10T05:08:00;86.17;;;35.23;;
36457;SDS011;22480;50.546;12.292;2022-12-10T05:10:26;80.90;;;33.57;;
36457;SDS011;22480;50.546;12.292;2022-12-10T05:12:52;80.87;;;34.83;;
36457;SDS011;22480;50.546;12.292;2022-12-10T05:15:18;84.00;;;34.80;;
36457;SDS011;22480;50.546;12.292;2022-12-10T05:17:43;86.17;;;35.03;;
36457;SDS011;22480;50.546;12.292;2022-12-10T05:20:09;83.67;;;33.37;;
36457;SDS011;22480;50.546;12.292;2022-12-10T05:22:36;83.20;;;35.40;;
36457;SDS011;22480;50.546;12.292;2022-12-10T05:25:20;85.43;;;34.70;;
36457;SDS011;22480;50.546;12.292;2022-12-10T05:27:46;86.37;;;35.30;;
36457;SDS011;22480;50.546;12.292;2022-12-10T05:30:12;85.90;;;34.83;;
36457;SDS011;22480;50.546;12.292;2022-12-10T05:32:38;90.17;;;36.37;;
36457;SDS011;22480;50.546;12.292;2022-12-10T05:35:04;87.50;;;34.43;;
36457;SDS011;22480;50.546;12.292;2022-12-10T05:37:30;94.87;;;36.00;;
36457;SDS011;22480;50.546;12.292;2022-12-10T05:39:56;94.90;;;35.47;;
36457;SDS011;22480;50.546;12.292;2022-12-10T05:42:21;92.10;;;33.90;;
36457;SDS011;22480;50.546;12.292;2022-12-10T05:44:47;102.07;;;37.93;;
36457;SDS011;22480;50.546;12.292;2022-12-10T05:47:13;90.07;;;35.57;;
36457;SDS011;22480;50.546;12.292;2022-12-10T05:49:39;98.13;;;35.83;;
36457;SDS011;22480;50.546;12.292;2022-12-10T05:52:04;99.27;;;36.57;;
36457;SDS011;22480;50.546;12.292;2022-12-10T05:54:30;112.13;;;35.20;;
36457;SDS011;22480;50.546;12.292;2022-12-10T05:56:56;109.77;;;36.10;;
36457;SDS011;22480;50.546;12.292;2022-12-10T05:59:22;117.87;;;35.83;;
36457;SDS011;22480;50.546;12.292;2022-12-10T06:01:47;114.50;;;34.87;;
36457;SDS011;22480;50.546;12.292;2022-12-10T06:04:13;122.57;;;36.00;;
36457;SDS011;22480;50.546;12.292;2022-12-10T06:06:39;173.63;;;37.13;;
36457;SDS011;22480;50.546;12.292;2022-12-10T06:09:06;172.33;;;37.17;;
36457;SDS011;22480;50.546;12.292;2022-12-10T06:11:36;163.77;;;37.07;;
36457;SDS011;22480;50.546;12.292;2022-12-10T06:14:02;139.90;;;38.40;;
36457;SDS011;22480;50.546;12.292;2022-12-10T06:16:28;129.17;;;34.17;;
36457;SDS011;22480;50.546;12.292;2022-12-10T06:18:54;144.33;;;36.97;;
36457;SDS011;22480;50.546;12.292;2022-12-10T06:21:21;165.37;;;35.97;;
36457;SDS011;22480;50.546;12.292;2022-12-10T06:23:49;198.00;;;40.33;;
36457;SDS011;22480;50.546;12.292;2022-12-10T06:26:18;176.40;;;37.13;;
36457;SDS011;22480;50.546;12.292;2022-12-10T06:28:48;145.13;;;38.00;;
36457;SDS011;22480;50.546;12.292;2022-12-10T06:31:15;129.90;;;34.63;;
36457;SDS011;22480;50.546;12.292;2022-12-10T06:33:41;134.90;;;34.43;;
36457;SDS011;22480;50.546;12.292;2022-12-10T06:36:08;135.67;;;35.13;;
36457;SDS011;22480;50.546;12.292;2022-12-10T06:38:36;122.97;;;34.23;;
36457;SDS011;22480;50.546;12.292;2022-12-10T06:41:06;128.80;;;34.63;;
36457;SDS011;22480;50.546;12.292;2022-12-10T06:43:33;128.60;;;33.90;;
36457;SDS011;22480;50.546;12.292;2022-12-10T06:46:10;132.47;;;35.27;;
36457;SDS011;22480;50.546;12.292;2022-12-10T06:48:37;133.57;;;35.00;;
36457;SDS011;22480;50.546;12.292;2022-12-10T06:51:03;114.70;;;34.00;;
36457;SDS011;22480;50.546;12.292;2022-12-10T06:53:31;123.07;;;34.83;;
36457;SDS011;22480;50.546;12.292;2022-12-10T06:55:58;114.17;;;34.90;;
36457;SDS011;22480;50.546;12.292;2022-12-10T06:58:26;121.50;;;34.20;;
36457;SDS011;22480;50.546;12.292;2022-12-10T07:00:53;111.63;;;33.37;;
36457;SDS011;22480;50.546;12.292;2022-12-10T07:03:19;126.90;;;33.10;;
36457;SDS011;22480;50.546;12.292;2022-12-10T07:05:45;120.23;;;35.80;;
36457;SDS011;22480;50.546;12.292;2022-12-10T07:08:10;115.40;;;33.53;;
36457;SDS011;22480;50.546;12.292;2022-12-10T07:10:36;126.60;;;33.10;;
36457;SDS011;22480;50.546;12.292;2022-12-10T07:13:02;113.20;;;31.27;;
36457;SDS011;22480;50.546;12.292;2022-12-10T07:15:28;103.50;;;32.87;;
36457;SDS011;22480;50.546;12.292;2022-12-10T07:17:56;106.27;;;31.83;;
36457;SDS011;22480;50.546;12.292;2022-12-10T07:20:22;102.13;;;31.07;;
36457;SDS011;22480;50.546;12.292;2022-12-10T07:22:47;100.37;;;32.80;;
36457;SDS011;22480;50.546;12.292;2022-12-10T07:25:13;105.70;;;31.97;;
36457;SDS011;22480;50.546;12.292;2022-12-10T07:27:39;103.50;;;34.37;;
36457;SDS011;22480;50.546;12.292;2022-12-10T07:30:05;96.67;;;30.53;;
36457;SDS011;22480;50.546;12.292;2022-12-10T07:32:31;99.40;;;32.43;;
36457;SDS011;22480;50.546;12.292;2022-12-10T07:34:57;100.67;;;32.10;;
36457;SDS011;22480;50.546;12.292;2022-12-10T07:37:22;93.87;;;30.57;;
36457;SDS011;22480;50.546;12.292;2022-12-10T07:39:48;91.53;;;29.07;;
36457;SDS011;22480;50.546;12.292;2022-12-10T07:42:14;96.97;;;30.73;;
36457;SDS011;22480;50.546;12.292;2022-12-10T07:44:39;103.73;;;33.70;;
36457;SDS011;22480;50.546;12.292;2022-12-10T07:47:05;87.70;;;33.27;;
36457;SDS011;22480;50.546;12.292;2022-12-10T07:49:31;92.70;;;32.83;;
36457;SDS011;22480;50.546;12.292;2022-12-10T07:51:57;86.43;;;30.70;;
36457;SDS011;22480;50.546;12.292;2022-12-10T07:54:22;83.73;;;30.70;;
36457;SDS011;22480;50.546;12.292;2022-12-10T07:56:48;84.13;;;29.17;;
36457;SDS011;22480;50.546;12.292;2022-12-10T07:59:14;77.87;;;29.63;;
36457;SDS011;22480;50.546;12.292;2022-12-10T08:01:40;84.13;;;29.67;;
36457;SDS011;22480;50.546;12.292;2022-12-10T08:04:06;92.23;;;30.20;;
36457;SDS011;22480;50.546;12.292;2022-12-10T08:06:32;73.67;;;27.97;;
36457;SDS011;22480;50.546;12.292;2022-12-10T08:08:58;79.83;;;28.20;;
36457;SDS011;22480;50.546;12.292;2022-12-10T08:11:24;75.83;;;26.70;;
36457;SDS011;22480;50.546;12.292;2022-12-10T08:13:51;82.53;;;28.57;;
36457;SDS011;22480;50.546;12.292;2022-12-10T08:16:18;76.33;;;28.63;;
36457;SDS011;22480;50.546;12.292;2022-12-10T08:21:14;66.97;;;26.67;;
36457;SDS011;22480;50.546;12.292;2022-12-10T08:23:42;62.90;;;26.97;;
36457;SDS011;22480;50.546;12.292;2022-12-10T08:26:09;65.87;;;25.23;;
36457;SDS011;22480;50.546;12.292;2022-12-10T08:28:37;65.87;;;27.40;;
36457;SDS011;22480;50.546;12.292;2022-12-10T08:31:03;60.23;;;25.40;;
36457;SDS011;22480;50.546;12.292;2022-12-10T08:33:32;58.13;;;25.53;;
36457;SDS011;22480;50.546;12.292;2022-12-10T08:35:59;66.57;;;26.03;;
36457;SDS011;22480;50.546;12.292;2022-12-10T08:38:28;62.10;;;28.30;;
36457;SDS011;22480;50.546;12.292;2022-12-10T08:40:55;62.07;;;28.90;;
36457;SDS011;22480;50.546;12.292;2022-12-10T08:43:21;55.30;;;24.57;;
36457;SDS011;22480;50.546;12.292;2022-12-10T08:45:47;57.37;;;26.10;;
36457;SDS011;22480;50.546;12.292;2022-12-10T08:48:13;52.63;;;23.67;;
36457;SDS011;22480;50.546;12.292;2022-12-10T08:50:39;52.60;;;24.60;;
36457;SDS011;22480;50.546;12.292;2022-12-10T08:53:04;49.00;;;22.13;;
36457;SDS011;22480;50.546;12.292;2022-12-10T08:55:30;53.20;;;24.80;;
36457;SDS011;22480;50.546;12.292;2022-12-10T08:57:56;50.33;;;24.20;;
36457;SDS011;22480;50.546;12.292;2022-12-10T09:00:23;47.10;;;20.87;;
36457;SDS011;22480;50.546;12.292;2022-12-10T09:02:50;52.13;;;25.87;;
36457;SDS011;22480;50.546;12.292;2022-12-10T09:05:15;48.40;;;21.17;;
36457;SDS011;22480;50.546;12.292;2022-12-10T09:07:41;45.50;;;21.23;;
36457;SDS011;22480;50.546;12.292;2022-12-10T09:10:09;45.67;;;20.70;;
36457;SDS011;22480;50.546;12.292;2022-12-10T09:12:37;41.67;;;20.27;;
36457;SDS011;22480;50.546;12.292;2022-12-10T09:15:03;47.20;;;21.43;;
36457;SDS011;22480;50.546;12.292;2022-12-10T09:17:30;48.90;;;21.53;;
36457;SDS011;22480;50.546;12.292;2022-12-10T09:19:56;43.13;;;22.50;;
36457;SDS011;22480;50.546;12.292;2022-12-10T09:22:22;46.63;;;22.27;;
36457;SDS011;22480;50.546;12.292;2022-12-10T09:24:48;45.57;;;21.07;;
36457;SDS011;22480;50.546;12.292;2022-12-10T09:27:13;45.73;;;20.87;;
36457;SDS011;22480;50.546;12.292;2022-12-10T09:29:39;45.13;;;21.40;;
36457;SDS011;22480;50.546;12.292;2022-12-10T09:32:05;45.37;;;20.83;;
36457;SDS011;22480;50.546;12.292;2022-12-10T09:34:31;42.47;;;21.43;;
36457;SDS011;22480;50.546;12.292;2022-12-10T09:36:56;44.33;;;21.07;;
36457;SDS011;22480;50.546;12.292;2022-12-10T09:39:22;45.30;;;21.47;;
36457;SDS011;22480;50.546;12.292;2022-12-10T09:46:48;42.73;;;22.10;;
36457;SDS011;22480;50.546;12.292;2022-12-10T09:49:33;37.07;;;19.40;;
36457;SDS011;22480;50.546;12.292;2022-12-10T09:52:26;38.37;;;19.10;;
36457;SDS011;22480;50.546;12.292;2022-12-10T09:54:58;38.77;;;20.37;;
36457;SDS011;22480;50.546;12.292;2022-12-10T09:59:55;39.73;;;20.87;;
36457;SDS011;22480;50.546;12.292;2022-12-10T10:02:28;40.70;;;19.83;;
36457;SDS011;22480;50.546;12.292;2022-12-10T10:07:34;41.53;;;20.57;;
36457;SDS011;22480;50.546;12.292;2022-12-10T10:10:11;37.83;;;19.17;;
36457;SDS011;22480;50.546;12.292;2022-12-10T10:12:55;33.93;;;18.47;;
36457;SDS011;22480;50.546;12.292;2022-12-10T10:15:30;33.87;;;18.10;;
36457;SDS011;22480;50.546;12.292;2022-12-10T10:17:58;37.03;;;20.23;;
36457;SDS011;22480;50.546;12.292;2022-12-10T10:20:46;36.27;;;18.70;;
36457;SDS011;22480;50.546;12.292;2022-12-10T10:23:13;34.43;;;19.10;;
36457;SDS011;22480;50.546;12.292;2022-12-10T10:25:40;37.40;;;19.87;;
36457;SDS011;22480;50.546;12.292;2022-12-10T10:28:10;38.73;;;20.47;;
36457;SDS011;22480;50.546;12.292;2022-12-10T10:30:37;36.30;;;18.30;;
36457;SDS011;22480;50.546;12.292;2022-12-10T10:33:10;36.40;;;19.63;;
36457;SDS011;22480;50.546;12.292;2022-12-10T10:35:44;35.67;;;19.23;;
36457;SDS011;22480;50.546;12.292;2022-12-10T10:40:52;33.58;;;18.10;;
36457;SDS011;22480;50.546;12.292;2022-12-10T10:43:25;31.23;;;16.88;;
36457;SDS011;22480;50.546;12.292;2022-12-10T10:46:04;31.77;;;15.93;;
36457;SDS011;22480;50.546;12.292;2022-12-10T10:48:38;34.78;;;17.98;;
36457;SDS011;22480;50.546;12.292;2022-12-10T11:01:17;28.73;;;16.60;;
36457;SDS011;22480;50.546;12.292;2022-12-10T11:03:46;30.13;;;18.13;;
36457;SDS011;22480;50.546;12.292;2022-12-10T11:06:14;29.17;;;16.85;;
36457;SDS011;22480;50.546;12.292;2022-12-10T11:08:41;28.70;;;16.67;;
36457;SDS011;22480;50.546;12.292;2022-12-10T11:11:57;25.50;;;15.67;;
36457;SDS011;22480;50.546;12.292;2022-12-10T11:16:54;23.67;;;14.40;;
36457;SDS011;22480;50.546;12.292;2022-12-10T11:19:53;27.65;;;16.40;;
36457;SDS011;22480;50.546;12.292;2022-12-10T11:22:30;21.63;;;13.15;;
36457;SDS011;22480;50.546;12.292;2022-12-10T11:24:58;25.07;;;14.83;;
36457;SDS011;22480;50.546;12.292;2022-12-10T11:30:20;23.83;;;13.98;;
36457;SDS011;22480;50.546;12.292;2022-12-10T11:41:47;20.42;;;12.73;;
36457;SDS011;22480;50.546;12.292;2022-12-10T11:44:49;25.15;;;13.70;;
36457;SDS011;22480;50.546;12.292;2022-12-10T11:50:28;17.50;;;10.20;;
36457;SDS011;22480;50.546;12.292;2022-12-10T12:09:25;16.95;;;9.82;;
36457;SDS011;22480;50.546;12.292;2022-12-10T12:12:03;15.60;;;9.45;;
36457;SDS011;22480;50.546;12.292;2022-12-10T12:14:59;16.73;;;10.75;;
36457;SDS011;22480;50.546;12.292;2022-12-10T12:17:40;16.90;;;10.98;;
36457;SDS011;22480;50.546;12.292;2022-12-10T12:20:18;17.52;;;10.98;;
36457;SDS011;22480;50.546;12.292;2022-12-10T12:23:06;14.98;;;9.90;;
36457;SDS011;22480;50.546;12.292;2022-12-10T12:25:48;18.45;;;11.88;;
36457;SDS011;22480;50.546;12.292;2022-12-10T12:28:39;18.00;;;10.95;;
36457;SDS011;22480;50.546;12.292;2022-12-10T12:31:12;17.87;;;10.73;;
36457;SDS011;22480;50.546;12.292;2022-12-10T12:36:45;19.63;;;11.30;;
36457;SDS011;22480;50.546;12.292;2022-12-10T12:45:03;20.83;;;11.00;;
36457;SDS011;22480;50.546;12.292;2022-12-10T12:52:46;17.27;;;10.60;;
36457;SDS011;22480;50.546;12.292;2022-12-10T12:58:09;18.93;;;11.77;;
36457;SDS011;22480;50.546;12.292;2022-12-10T13:00:43;22.40;;;11.93;;
36457;SDS011;22480;50.546;12.292;2022-12-10T13:03:19;18.60;;;11.07;;
36457;SDS011;22480;50.546;12.292;2022-12-10T13:05:51;21.33;;;11.20;;
36457;SDS011;22480;50.546;12.292;2022-12-10T13:10:48;20.70;;;12.03;;
36457;SDS011;22480;50.546;12.292;2022-12-10T13:13:34;20.80;;;12.57;;
36457;SDS011;22480;50.546;12.292;2022-12-10T13:24:20;21.00;;;12.07;;
36457;SDS011;22480;50.546;12.292;2022-12-10T13:32:19;27.07;;;14.73;;
36457;SDS011;22480;50.546;12.292;2022-12-10T13:37:34;29.23;;;16.17;;
36457;SDS011;22480;50.546;12.292;2022-12-10T13:42:29;28.00;;;15.80;;
36457;SDS011;22480;50.546;12.292;2022-12-10T13:47:48;32.37;;;17.27;;
36457;SDS011;22480;50.546;12.292;2022-12-10T13:50:20;34.60;;;16.67;;
36457;SDS011;22480;50.546;12.292;2022-12-10T13:53:17;35.63;;;18.17;;
36457;SDS011;22480;50.546;12.292;2022-12-10T13:56:08;33.20;;;17.13;;
36457;SDS011;22480;50.546;12.292;2022-12-10T13:58:57;30.50;;;15.07;;
36457;SDS011;22480;50.546;12.292;2022-12-10T14:07:19;35.17;;;17.57;;
36457;SDS011;22480;50.546;12.292;2022-12-10T14:09:50;36.80;;;17.37;;
36457;SDS011;22480;50.546;12.292;2022-12-10T14:12:20;40.50;;;18.50;;
36457;SDS011;22480;50.546;12.292;2022-12-10T14:15:37;41.90;;;20.23;;
36457;SDS011;22480;50.546;12.292;2022-12-10T14:17:46;48.87;;;24.07;;
36457;SDS011;22480;50.546;12.292;2022-12-10T14:20:26;39.53;;;20.05;;
36457;SDS011;22480;50.546;12.292;2022-12-10T14:22:55;34.97;;;18.63;;
36457;SDS011;22480;50.546;12.292;2022-12-10T14:25:45;30.83;;;16.87;;
36457;SDS011;22480;50.546;12.292;2022-12-10T14:28:13;30.37;;;16.43;;
36457;SDS011;22480;50.546;12.292;2022-12-10T14:30:43;33.33;;;17.40;;
36457;SDS011;22480;50.546;12.292;2022-12-10T14:33:12;27.37;;;15.63;;
36457;SDS011;22480;50.546;12.292;2022-12-10T14:35:42;37.47;;;19.70;;
36457;SDS011;22480;50.546;12.292;2022-12-10T14:38:16;32.23;;;17.67;;
36457;SDS011;22480;50.546;12.292;2022-12-10T14:40:55;31.03;;;17.77;;
36457;SDS011;22480;50.546;12.292;2022-12-10T14:43:36;34.83;;;18.33;;
36457;SDS011;22480;50.546;12.292;2022-12-10T14:46:05;35.93;;;17.77;;
36457;SDS011;22480;50.546;12.292;2022-12-10T14:48:40;34.30;;;17.40;;
36457;SDS011;22480;50.546;12.292;2022-12-10T14:51:16;31.07;;;16.03;;
36457;SDS011;22480;50.546;12.292;2022-12-10T14:53:44;29.73;;;16.03;;
36457;SDS011;22480;50.546;12.292;2022-12-10T14:56:13;28.87;;;16.10;;
36457;SDS011;22480;50.546;12.292;2022-12-10T15:01:33;33.40;;;17.80;;
36457;SDS011;22480;50.546;12.292;2022-12-10T15:04:01;28.00;;;15.70;;
36457;SDS011;22480;50.546;12.292;2022-12-10T15:06:33;31.13;;;16.77;;
36457;SDS011;22480;50.546;12.292;2022-12-10T15:09:01;31.50;;;17.43;;
36457;SDS011;22480;50.546;12.292;2022-12-10T15:11:28;30.77;;;17.03;;
36457;SDS011;22480;50.546;12.292;2022-12-10T15:13:56;33.33;;;17.37;;
36457;SDS011;22480;50.546;12.292;2022-12-10T15:19:19;31.60;;;16.93;;
36457;SDS011;22480;50.546;12.292;2022-12-10T15:21:51;34.40;;;17.60;;
36457;SDS011;22480;50.546;12.292;2022-12-10T15:24:26;39.10;;;20.53;;
36457;SDS011;22480;50.546;12.292;2022-12-10T15:27:14;33.70;;;17.57;;
36457;SDS011;22480;50.546;12.292;2022-12-10T15:29:45;48.53;;;28.00;;
36457;SDS011;22480;50.546;12.292;2022-12-10T15:32:15;92.67;;;47.13;;
36457;SDS011;22480;50.546;12.292;2022-12-10T15:34:53;39.57;;;21.93;;
36457;SDS011;22480;50.546;12.292;2022-12-10T15:37:24;47.00;;;26.03;;
36457;SDS011;22480;50.546;12.292;2022-12-10T15:39:59;37.23;;;20.70;;
36457;SDS011;22480;50.546;12.292;2022-12-10T15:44:58;38.97;;;20.20;;
36457;SDS011;22480;50.546;12.292;2022-12-10T15:47:26;39.57;;;21.03;;
36457;SDS011;22480;50.546;12.292;2022-12-10T15:49:54;40.93;;;21.23;;
36457;SDS011;22480;50.546;12.292;2022-12-10T15:52:22;40.97;;;20.67;;
36457;SDS011;22480;50.546;12.292;2022-12-10T15:54:54;38.90;;;19.00;;
36457;SDS011;22480;50.546;12.292;2022-12-10T15:57:22;35.37;;;17.83;;
36457;SDS011;22480;50.546;12.292;2022-12-10T15:59:55;32.60;;;16.43;;
36457;SDS011;22480;50.546;12.292;2022-12-10T16:05:25;37.33;;;20.03;;
36457;SDS011;22480;50.546;12.292;2022-12-10T16:07:55;33.10;;;16.48;;
36457;SDS011;22480;50.546;12.292;2022-12-10T16:10:24;41.80;;;20.40;;
36457;SDS011;22480;50.546;12.292;2022-12-10T16:13:01;33.87;;;18.23;;
36457;SDS011;22480;50.546;12.292;2022-12-10T16:15:30;36.53;;;20.30;;
36457;SDS011;22480;50.546;12.292;2022-12-10T16:18:03;39.93;;;19.90;;
36457;SDS011;22480;50.546;12.292;2022-12-10T16:20:30;33.57;;;18.77;;
36457;SDS011;22480;50.546;12.292;2022-12-10T16:22:57;33.83;;;18.67;;
36457;SDS011;22480;50.546;12.292;2022-12-10T16:25:24;33.67;;;18.60;;
36457;SDS011;22480;50.546;12.292;2022-12-10T16:27:52;35.70;;;19.63;;
36457;SDS011;22480;50.546;12.292;2022-12-10T16:30:19;36.40;;;19.93;;
36457;SDS011;22480;50.546;12.292;2022-12-10T16:32:47;36.77;;;20.53;;
36457;SDS011;22480;50.546;12.292;2022-12-10T16:35:13;33.93;;;19.53;;
36457;SDS011;22480;50.546;12.292;2022-12-10T16:37:44;29.13;;;18.67;;
36457;SDS011;22480;50.546;12.292;2022-12-10T16:40:14;30.03;;;18.23;;
36457;SDS011;22480;50.546;12.292;2022-12-10T16:42:41;29.02;;;15.82;;
36457;SDS011;22480;50.546;12.292;2022-12-10T16:47:44;34.47;;;20.50;;
36457;SDS011;22480;50.546;12.292;2022-12-10T16:50:10;35.33;;;19.77;;
36457;SDS011;22480;50.546;12.292;2022-12-10T16:52:36;31.33;;;17.83;;
36457;SDS011;22480;50.546;12.292;2022-12-10T16:55:03;31.93;;;18.90;;